createdAt,value
2023-01-29T00:00:38.625Z,76.26
2023-01-29T00:03:06.586Z,70.33
2023-01-29T00:05:36.064Z,70.39
2023-01-29T00:08:03.907Z,78.16
2023-01-29T00:10:31.770Z,86.95
2023-01-29T00:12:59.628Z,83.37
2023-01-29T00:15:27.451Z,77.59
2023-01-29T00:17:56.626Z,89.18
2023-01-29T00:20:24.485Z,73.08
2023-01-29T00:22:52.373Z,76.42
2023-01-29T00:25:20.316Z,71.66
2023-01-29T00:27:48.117Z,90.43
2023-01-29T00:30:19.357Z,83.69
2023-01-29T00:32:47.766Z,87.30
2023-01-29T00:35:17.085Z,78.86
2023-01-29T00:37:44.935Z,92.37
2023-01-29T00:40:16.373Z,86.23
2023-01-29T00:43:03.353Z,96.14
2023-01-29T00:45:31.217Z,82.09
2023-01-29T00:47:59.083Z,75.09
2023-01-29T00:50:28.284Z,86.59
2023-01-29T00:52:56.153Z,81.72
2023-01-29T00:55:24.001Z,83.80
2023-01-29T00:57:52.132Z,73.40
2023-01-29T01:00:20.849Z,77.64
2023-01-29T01:03:06.164Z,86.51
2023-01-29T01:05:36.723Z,85.39
2023-01-29T01:08:25.129Z,70.82
2023-01-29T01:10:59.394Z,74.91
2023-01-29T01:13:27.218Z,91.33
2023-01-29T01:15:55.157Z,79.90
2023-01-29T01:18:23.239Z,84.49
2023-01-29T01:20:59.475Z,87.94
2023-01-29T01:23:27.969Z,91.66
2023-01-29T01:25:55.988Z,91.91
2023-01-29T01:28:23.931Z,72.11
2023-01-29T01:30:51.923Z,83.85
2023-01-29T01:33:20.249Z,86.71
2023-01-29T01:35:48.285Z,81.80
2023-01-29T01:38:17.526Z,77.54
2023-01-29T01:40:46.683Z,75.33
2023-01-29T01:43:14.738Z,91.50
2023-01-29T01:45:46.479Z,96.76
2023-01-29T01:48:17.929Z,76.73
2023-01-29T01:50:48.006Z,96.15
2023-01-29T01:53:21.207Z,81.51
2023-01-29T01:55:52.269Z,83.04
2023-01-29T01:58:24.662Z,80.46
2023-01-29T02:00:52.865Z,79.34
2023-01-29T02:03:39.112Z,81.81
2023-01-29T02:06:24.620Z,75.36
2023-01-29T02:09:14.145Z,78.10
2023-01-29T02:11:42.191Z,74.59
2023-01-29T02:14:10.180Z,76.17
2023-01-29T02:16:38.335Z,82.47
2023-01-29T02:19:09.455Z,79.88
2023-01-29T02:22:03.537Z,90.97
2023-01-29T02:24:55.084Z,87.24
2023-01-29T02:27:26.032Z,91.90
2023-01-29T02:30:01.653Z,94.47
2023-01-29T02:32:32.517Z,89.53
2023-01-29T02:35:25.824Z,100.00
2023-01-29T02:37:58.903Z,95.09
2023-01-29T02:40:31.439Z,91.71
2023-01-29T02:43:07.972Z,100.00
2023-01-29T02:45:44.826Z,94.54
2023-01-29T02:48:18.272Z,87.79
2023-01-29T02:50:51.049Z,88.66
2023-01-29T02:53:21.827Z,93.55
2023-01-29T02:55:52.743Z,87.15
2023-01-29T02:58:26.368Z,95.61
2023-01-29T03:00:57.678Z,84.75
2023-01-29T03:03:27.930Z,92.72
2023-01-29T03:05:59.875Z,100.00
2023-01-29T03:08:43.107Z,78.68
2023-01-29T03:11:14.090Z,88.51
2023-01-29T03:13:46.036Z,100.00
2023-01-29T03:16:21.460Z,83.65
2023-01-29T03:18:53.248Z,90.78
2023-01-29T03:21:45.092Z,100.00
2023-01-29T03:24:32.677Z,91.36
2023-01-29T03:27:21.812Z,100.00
2023-01-29T03:30:08.708Z,94.59
2023-01-29T03:32:51.267Z,88.85
2023-01-29T03:35:33.375Z,74.47
2023-01-29T03:38:02.056Z,74.52
2023-01-29T03:40:31.156Z,83.76
2023-01-29T03:43:08.560Z,98.01
2023-01-29T03:45:43.009Z,76.80
2023-01-29T03:48:16.242Z,85.65
2023-01-29T03:50:55.598Z,80.47
2023-01-29T03:53:26.428Z,81.99
2023-01-29T03:55:58.290Z,83.98
2023-01-29T03:58:31.826Z,77.83
2023-01-29T04:01:02.485Z,92.28
2023-01-29T04:03:35.414Z,98.08
2023-01-29T04:06:10.672Z,100.00
2023-01-29T04:09:06.246Z,90.54
2023-01-29T04:11:41.142Z,97.03
2023-01-29T04:14:14.843Z,98.88
2023-01-29T04:16:46.930Z,100.00
2023-01-29T04:19:16.434Z,100.00
2023-01-29T04:21:45.329Z,100.00
2023-01-29T04:24:14.868Z,100.00
2023-01-29T04:26:55.598Z,100.00
2023-01-29T04:29:34.293Z,86.10
2023-01-29T04:32:10.839Z,98.02
2023-01-29T04:34:52.248Z,100.00
2023-01-29T04:37:24.926Z,100.00
2023-01-29T04:39:57.032Z,100.00
2023-01-29T04:42:31.364Z,99.17
2023-01-29T04:45:04.518Z,84.84
2023-01-29T04:47:36.882Z,98.07
2023-01-29T04:50:14.420Z,91.53
2023-01-29T04:52:48.862Z,97.32
2023-01-29T04:55:20.996Z,100.00
2023-01-29T04:57:51.937Z,100.00
2023-01-29T05:00:21.497Z,100.00
2023-01-29T05:02:50.233Z,100.00
2023-01-29T05:05:21.247Z,100.00
2023-01-29T05:07:49.632Z,88.40
2023-01-29T05:10:20.004Z,98.75
2023-01-29T05:12:52.677Z,100.00
2023-01-29T05:15:23.891Z,100.00
2023-01-29T05:17:53.790Z,97.54
2023-01-29T05:20:23.281Z,100.00
2023-01-29T05:22:51.285Z,100.00
2023-01-29T05:25:23.085Z,100.00
2023-01-29T05:28:07.200Z,100.00
2023-01-29T05:30:38.161Z,100.00
2023-01-29T05:33:10.758Z,100.00
2023-01-29T05:35:40.031Z,100.00
2023-01-29T05:38:07.890Z,100.00
2023-01-29T05:40:35.966Z,100.00
2023-01-29T05:43:03.848Z,100.00
2023-01-29T05:45:31.760Z,100.00
2023-01-29T05:48:00.317Z,100.00
2023-01-29T05:50:28.678Z,100.00
2023-01-29T05:53:01.737Z,100.00
2023-01-29T05:55:30.454Z,100.00
2023-01-29T05:57:58.372Z,100.00
2023-01-29T06:00:26.191Z,100.00
2023-01-29T06:02:54.154Z,100.00
2023-01-29T06:05:22.069Z,100.00
2023-01-29T06:07:49.943Z,100.00
2023-01-29T06:10:20.068Z,100.00
2023-01-29T06:12:48.227Z,100.00
2023-01-29T06:15:16.443Z,100.00
2023-01-29T06:17:44.691Z,100.00
2023-01-29T06:20:13.330Z,100.00
2023-01-29T06:22:41.147Z,100.00
2023-01-29T06:25:10.626Z,100.00
2023-01-29T06:27:40.235Z,100.00
2023-01-29T06:30:09.415Z,100.00
2023-01-29T06:32:37.332Z,100.00
2023-01-29T06:35:05.877Z,100.00
2023-01-29T06:37:33.818Z,100.00
2023-01-29T06:40:01.725Z,100.00
2023-01-29T06:42:29.567Z,100.00
2023-01-29T06:44:58.944Z,100.00
2023-01-29T06:47:28.671Z,100.00
2023-01-29T06:49:56.510Z,100.00
2023-01-29T06:52:25.378Z,100.00
2023-01-29T06:54:53.233Z,100.00
2023-01-29T06:57:21.028Z,100.00
2023-01-29T06:59:48.920Z,100.00
2023-01-29T07:02:18.449Z,100.00
2023-01-29T07:04:46.333Z,100.00
2023-01-29T07:07:14.212Z,100.00
2023-01-29T07:09:42.610Z,100.00
2023-01-29T07:12:10.672Z,100.00
2023-01-29T07:14:38.651Z,100.00
2023-01-29T07:17:06.526Z,100.00
2023-01-29T07:19:35.839Z,100.00
2023-01-29T07:22:03.936Z,100.00
2023-01-29T07:24:32.049Z,100.00
2023-01-29T07:26:59.855Z,100.00
2023-01-29T07:29:27.845Z,100.00
2023-01-29T07:31:55.817Z,100.00
2023-01-29T07:34:23.731Z,100.00
2023-01-29T07:36:56.759Z,100.00
2023-01-29T07:39:24.700Z,100.00
2023-01-29T07:41:52.613Z,100.00
2023-01-29T07:44:23.758Z,100.00
2023-01-29T07:46:51.624Z,100.00
2023-01-29T07:49:19.456Z,100.00
2023-01-29T07:51:47.302Z,100.00
2023-01-29T07:54:16.604Z,100.00
2023-01-29T07:56:44.481Z,100.00
2023-01-29T07:59:12.401Z,100.00
2023-01-29T08:01:40.244Z,100.00
2023-01-29T08:04:08.088Z,100.00
2023-01-29T08:06:35.891Z,100.00
2023-01-29T08:09:03.766Z,100.00
2023-01-29T08:11:32.963Z,100.00
2023-01-29T08:14:00.831Z,100.00
2023-01-29T08:16:28.727Z,100.00
2023-01-29T08:18:56.636Z,100.00
2023-01-29T08:21:24.444Z,100.00
2023-01-29T08:23:52.215Z,100.00
2023-01-29T08:26:20.087Z,100.00
2023-01-29T08:28:49.264Z,100.00
2023-01-29T08:31:17.730Z,100.00
2023-01-29T08:33:45.549Z,100.00
2023-01-29T08:36:13.664Z,100.00
2023-01-29T08:38:41.536Z,100.00
2023-01-29T08:41:09.592Z,100.00
2023-01-29T08:43:38.511Z,100.00
2023-01-29T08:46:08.395Z,100.00
2023-01-29T08:48:36.923Z,100.00
2023-01-29T08:51:05.215Z,100.00
2023-01-29T08:53:33.282Z,100.00
2023-01-29T08:56:01.240Z,100.00
2023-01-29T08:58:29.047Z,100.00
2023-01-29T09:00:56.967Z,100.00
2023-01-29T09:03:26.253Z,100.00
2023-01-29T09:05:54.089Z,100.00
2023-01-29T09:08:22.092Z,100.00
2023-01-29T09:10:49.897Z,100.00
2023-01-29T09:13:17.720Z,100.00
2023-01-29T09:15:45.583Z,100.00
2023-01-29T09:18:13.430Z,100.00
2023-01-29T09:20:42.604Z,100.00
2023-01-29T09:23:11.114Z,100.00
2023-01-29T09:25:39.291Z,100.00
2023-01-29T09:28:07.300Z,100.00
2023-01-29T09:30:37.973Z,100.00
2023-01-29T09:33:06.380Z,100.00
2023-01-29T09:35:34.468Z,100.00
2023-01-29T09:38:03.674Z,100.00
2023-01-29T09:40:35.268Z,100.00
2023-01-29T09:43:05.743Z,100.00
2023-01-29T09:45:34.144Z,100.00
2023-01-29T09:48:05.656Z,100.00
2023-01-29T09:50:37.708Z,100.00
2023-01-29T09:53:14.744Z,100.00
2023-01-29T09:55:46.997Z,100.00
2023-01-29T09:58:20.490Z,100.00
2023-01-29T10:00:55.618Z,100.00
2023-01-29T10:03:33.096Z,100.00
2023-01-29T10:06:12.578Z,100.00
2023-01-29T10:08:59.178Z,100.00
2023-01-29T10:11:36.643Z,100.00
2023-01-29T10:14:13.169Z,100.00
2023-01-29T10:16:50.534Z,100.00
2023-01-29T10:19:38.974Z,100.00
2023-01-29T10:22:23.227Z,100.00
2023-01-29T10:24:55.470Z,100.00
2023-01-29T10:27:23.582Z,100.00
2023-01-29T10:29:53.186Z,100.00
2023-01-29T10:32:23.236Z,100.00
2023-01-29T10:34:54.153Z,100.00
2023-01-29T10:37:24.377Z,100.00
2023-01-29T10:39:53.612Z,100.00
2023-01-29T10:42:27.244Z,100.00
2023-01-29T10:45:05.102Z,100.00
2023-01-29T10:47:52.554Z,100.00
2023-01-29T10:50:29.674Z,100.00
2023-01-29T10:53:18.847Z,100.00
2023-01-29T10:55:55.560Z,100.00
2023-01-29T10:58:30.712Z,84.63
2023-01-29T11:00:59.363Z,96.96
2023-01-29T11:03:29.371Z,96.47
2023-01-29T11:06:05.727Z,100.00
2023-01-29T11:08:39.003Z,96.29
2023-01-29T11:11:10.687Z,100.00
2023-01-29T11:13:42.544Z,100.00
2023-01-29T11:16:11.094Z,100.00
2023-01-29T11:18:53.479Z,100.00
2023-01-29T11:21:21.539Z,100.00
2023-01-29T11:23:49.375Z,100.00
2023-01-29T11:26:22.302Z,100.00
2023-01-29T11:28:51.122Z,100.00
2023-01-29T11:31:24.140Z,100.00
2023-01-29T11:33:53.814Z,100.00
2023-01-29T11:36:23.267Z,79.27
2023-01-29T11:39:10.265Z,78.82
2023-01-29T11:41:46.127Z,78.22
2023-01-29T11:44:19.929Z,99.78
2023-01-29T11:46:48.024Z,100.00
2023-01-29T11:49:23.852Z,93.78
2023-01-29T11:51:53.924Z,93.54
2023-01-29T11:54:28.480Z,99.07
2023-01-29T11:56:58.184Z,100.00
2023-01-29T11:59:44.183Z,100.00
2023-01-29T12:02:22.995Z,90.59
2023-01-29T12:04:51.112Z,81.14
2023-01-29T12:07:19.951Z,99.73
2023-01-29T12:09:53.377Z,87.33
2023-01-29T12:12:31.815Z,88.96
2023-01-29T12:15:15.614Z,80.97
2023-01-29T12:17:46.161Z,73.87
2023-01-29T12:20:17.746Z,84.62
2023-01-29T12:22:50.374Z,99.40
2023-01-29T12:25:23.495Z,92.00
2023-01-29T12:27:57.424Z,97.13
2023-01-29T12:30:29.818Z,75.99
2023-01-29T12:33:02.376Z,72.00
2023-01-29T12:35:32.745Z,74.89
2023-01-29T12:38:04.381Z,79.72
2023-01-29T12:40:44.772Z,75.71
2023-01-29T12:43:25.839Z,97.56
2023-01-29T12:45:55.408Z,93.77
2023-01-29T12:48:27.475Z,94.15
2023-01-29T12:51:09.041Z,97.25
2023-01-29T12:53:40.373Z,94.05
2023-01-29T12:56:11.815Z,87.24
2023-01-29T12:58:43.565Z,96.06
2023-01-29T13:01:16.643Z,99.73
2023-01-29T13:03:50.738Z,85.29
2023-01-29T13:06:21.420Z,85.05
2023-01-29T13:08:53.726Z,81.99
2023-01-29T13:11:25.491Z,94.45
2023-01-29T13:13:57.667Z,93.57
2023-01-29T13:16:27.941Z,72.42
2023-01-29T13:18:57.957Z,73.37
2023-01-29T13:21:28.314Z,87.16
2023-01-29T13:23:58.343Z,80.84
2023-01-29T13:26:26.812Z,75.24
2023-01-29T13:28:56.189Z,77.05
2023-01-29T13:31:31.566Z,75.99
2023-01-29T13:34:09.837Z,76.19
2023-01-29T13:36:38.802Z,82.32
2023-01-29T13:39:06.823Z,92.15
2023-01-29T13:41:36.031Z,89.16
2023-01-29T13:44:05.092Z,95.60
2023-01-29T13:46:32.683Z,89.97
2023-01-29T13:49:04.728Z,78.65
2023-01-29T13:51:34.446Z,76.18
2023-01-29T13:54:03.672Z,67.29
2023-01-29T13:56:36.334Z,62.30
2023-01-29T13:59:05.982Z,71.58
2023-01-29T14:01:52.073Z,74.58
2023-01-29T14:04:25.407Z,81.44
2023-01-29T14:06:53.547Z,89.44
2023-01-29T14:09:48.307Z,78.26
2023-01-29T14:12:32.203Z,100.00
2023-01-29T14:15:06.005Z,84.04
2023-01-29T14:17:33.588Z,100.00
2023-01-29T14:20:02.443Z,90.14
2023-01-29T14:22:30.070Z,83.27
2023-01-29T14:24:58.275Z,88.71
2023-01-29T14:27:26.301Z,100.00
2023-01-29T14:29:57.603Z,96.82
2023-01-29T14:32:26.617Z,100.00
2023-01-29T14:34:55.832Z,100.00
2023-01-29T14:37:25.066Z,100.00
2023-01-29T14:39:53.237Z,100.00
2023-01-29T14:42:23.351Z,100.00
2023-01-29T14:44:59.121Z,100.00
2023-01-29T14:47:45.291Z,100.00
2023-01-29T14:50:27.833Z,100.00
2023-01-29T14:52:59.310Z,100.00
2023-01-29T14:55:28.207Z,100.00
2023-01-29T14:57:55.865Z,100.00
2023-01-29T15:00:24.242Z,100.00
2023-01-29T15:02:59.859Z,100.00
2023-01-29T15:05:30.672Z,100.00
2023-01-29T15:08:00.281Z,100.00
2023-01-29T15:10:40.022Z,100.00
2023-01-29T15:13:09.570Z,100.00
2023-01-29T15:15:38.021Z,100.00
2023-01-29T15:18:06.757Z,100.00
2023-01-29T15:20:35.235Z,100.00
2023-01-29T15:23:04.763Z,100.00
2023-01-29T15:25:33.816Z,100.00
2023-01-29T15:28:02.168Z,100.00
2023-01-29T15:30:30.730Z,100.00
2023-01-29T15:32:59.091Z,100.00
2023-01-29T15:35:28.418Z,100.00
2023-01-29T15:37:59.910Z,100.00
2023-01-29T15:40:28.936Z,100.00
2023-01-29T15:42:56.561Z,100.00
2023-01-29T15:45:25.838Z,100.00
2023-01-29T15:47:53.791Z,100.00
2023-01-29T15:50:21.457Z,100.00
2023-01-29T15:52:50.171Z,100.00
2023-01-29T15:55:18.096Z,100.00
2023-01-29T15:57:47.387Z,100.00
2023-01-29T16:00:21.435Z,100.00
2023-01-29T16:02:49.107Z,100.00
2023-01-29T16:05:17.399Z,100.00
2023-01-29T16:07:45.451Z,100.00
2023-01-29T16:10:16.550Z,100.00
2023-01-29T16:12:47.212Z,100.00
2023-01-29T16:15:19.291Z,100.00
2023-01-29T16:17:47.020Z,100.00
2023-01-29T16:20:21.516Z,100.00
2023-01-29T16:22:49.215Z,100.00
2023-01-29T16:25:17.132Z,100.00
2023-01-29T16:27:44.952Z,100.00
2023-01-29T16:30:14.686Z,100.00
2023-01-29T16:32:43.934Z,100.00
2023-01-29T16:35:14.393Z,100.00
2023-01-29T16:37:42.189Z,100.00
2023-01-29T16:40:14.356Z,100.00
2023-01-29T16:42:42.313Z,100.00
2023-01-29T16:45:26.249Z,100.00
2023-01-29T16:48:02.487Z,100.00
2023-01-29T16:50:36.182Z,100.00
2023-01-29T16:53:12.798Z,100.00
2023-01-29T16:55:41.016Z,100.00
2023-01-29T16:58:12.867Z,100.00
2023-01-29T17:00:42.437Z,100.00
2023-01-29T17:03:12.334Z,100.00
2023-01-29T17:05:40.028Z,100.00
2023-01-29T17:08:07.816Z,100.00
2023-01-29T17:10:35.953Z,100.00
2023-01-29T17:13:04.447Z,100.00
2023-01-29T17:15:33.424Z,100.00
2023-01-29T17:18:01.187Z,100.00
2023-01-29T17:20:30.620Z,100.00
2023-01-29T17:22:58.296Z,100.00
2023-01-29T17:25:25.946Z,100.00
2023-01-29T17:27:53.620Z,100.00
2023-01-29T17:30:22.238Z,100.00
2023-01-29T17:32:49.959Z,100.00
2023-01-29T17:35:18.363Z,100.00
2023-01-29T17:37:47.565Z,100.00
2023-01-29T17:40:22.877Z,100.00
2023-01-29T17:42:50.639Z,100.00
2023-01-29T17:45:18.705Z,100.00
2023-01-29T17:47:46.623Z,100.00
2023-01-29T17:50:17.431Z,100.00
2023-01-29T17:52:45.079Z,100.00
2023-01-29T17:55:14.398Z,100.00
2023-01-29T17:57:42.356Z,98.50
2023-01-29T18:00:14.397Z,100.00
2023-01-29T18:02:42.078Z,100.00
2023-01-29T18:05:09.933Z,100.00
2023-01-29T18:07:37.769Z,100.00
2023-01-29T18:10:05.812Z,100.00
2023-01-29T18:12:34.841Z,100.00
2023-01-29T18:15:02.487Z,98.33
2023-01-29T18:17:30.193Z,100.00
2023-01-29T18:19:59.416Z,100.00
2023-01-29T18:22:27.168Z,100.00
2023-01-29T18:24:54.796Z,100.00
2023-01-29T18:27:22.506Z,100.00
2023-01-29T18:29:51.532Z,100.00
2023-01-29T18:32:19.207Z,100.00
2023-01-29T18:34:46.826Z,100.00
2023-01-29T18:37:14.455Z,100.00
2023-01-29T18:39:42.169Z,90.40
2023-01-29T18:42:09.791Z,100.00
2023-01-29T18:44:37.426Z,100.00
2023-01-29T18:47:06.439Z,100.00
2023-01-29T18:49:34.227Z,100.00
2023-01-29T18:52:01.894Z,100.00
2023-01-29T18:54:29.521Z,100.00
2023-01-29T18:57:08.689Z,100.00
2023-01-29T18:59:42.011Z,86.04
2023-01-29T19:02:13.721Z,100.00
2023-01-29T19:04:42.088Z,100.00
2023-01-29T19:07:09.751Z,100.00
2023-01-29T19:09:37.413Z,100.00
2023-01-29T19:12:05.399Z,100.00
2023-01-29T19:14:33.115Z,100.00
2023-01-29T19:17:01.642Z,100.00
2023-01-29T19:19:30.860Z,100.00
2023-01-29T19:21:58.458Z,100.00
2023-01-29T19:24:26.145Z,100.00
2023-01-29T19:26:53.867Z,100.00
2023-01-29T19:29:21.533Z,100.00
2023-01-29T19:31:49.191Z,100.00
2023-01-29T19:34:16.915Z,100.00
2023-01-29T19:36:45.993Z,100.00
2023-01-29T19:39:14.658Z,100.00
2023-01-29T19:41:42.809Z,100.00
2023-01-29T19:44:11.361Z,100.00
2023-01-29T19:46:39.514Z,100.00
2023-01-29T19:49:07.168Z,100.00
2023-01-29T19:51:34.839Z,100.00
2023-01-29T19:54:04.065Z,100.00
2023-01-29T19:56:31.716Z,100.00
2023-01-29T19:58:59.354Z,100.00
2023-01-29T20:01:29.455Z,100.00
2023-01-29T20:03:57.135Z,100.00
2023-01-29T20:06:25.801Z,100.00
2023-01-29T20:08:53.400Z,96.70
2023-01-29T20:11:22.889Z,99.67
2023-01-29T20:13:50.986Z,100.00
2023-01-29T20:16:19.004Z,90.73
2023-01-29T20:18:46.643Z,100.00
2023-01-29T20:21:14.864Z,100.00
2023-01-29T20:23:44.885Z,100.00
2023-01-29T20:26:14.591Z,100.00
2023-01-29T20:28:43.689Z,100.00
2023-01-29T20:31:11.399Z,100.00
2023-01-29T20:33:39.764Z,98.04
2023-01-29T20:36:08.115Z,100.00
2023-01-29T20:38:36.500Z,98.08
2023-01-29T20:41:05.471Z,89.29
2023-01-29T20:43:33.384Z,81.17
2023-01-29T20:46:03.826Z,85.63
2023-01-29T20:48:32.405Z,85.94
2023-01-29T20:51:05.068Z,76.27
2023-01-29T20:53:33.097Z,73.79
2023-01-29T20:56:03.896Z,73.75
2023-01-29T20:58:32.243Z,73.43
2023-01-29T21:01:01.786Z,73.06
2023-01-29T21:03:29.574Z,73.92
2023-01-29T21:05:59.046Z,73.33
2023-01-29T21:08:26.919Z,73.29
2023-01-29T21:10:55.045Z,67.52
2023-01-29T21:13:22.991Z,70.79
2023-01-29T21:15:50.964Z,76.81
2023-01-29T21:18:20.361Z,77.35
2023-01-29T21:20:50.251Z,78.86
2023-01-29T21:23:18.172Z,73.08
2023-01-29T21:25:46.143Z,82.67
2023-01-29T21:28:14.929Z,73.96
2023-01-29T21:30:42.916Z,86.70
2023-01-29T21:33:10.833Z,71.86
2023-01-29T21:35:40.115Z,72.65
2023-01-29T21:38:07.985Z,74.76
2023-01-29T21:40:35.879Z,80.74
2023-01-29T21:43:13.001Z,74.08
2023-01-29T21:45:41.777Z,78.83
2023-01-29T21:48:10.689Z,84.66
2023-01-29T21:50:40.305Z,76.27
2023-01-29T21:53:08.276Z,94.53
2023-01-29T21:55:36.162Z,81.47
2023-01-29T21:58:04.317Z,83.89
2023-01-29T22:00:32.388Z,80.70
2023-01-29T22:03:00.420Z,77.96
2023-01-29T22:05:29.166Z,72.69
2023-01-29T22:07:58.463Z,82.80
2023-01-29T22:10:30.599Z,76.40
2023-01-29T22:13:00.731Z,77.87
2023-01-29T22:15:28.699Z,83.53
2023-01-29T22:17:56.570Z,70.70
2023-01-29T22:20:29.735Z,68.03
2023-01-29T22:23:00.391Z,70.00
2023-01-29T22:25:28.542Z,75.11
2023-01-29T22:27:56.401Z,69.47
2023-01-29T22:30:24.315Z,68.25
2023-01-29T22:32:52.456Z,70.60
2023-01-29T22:35:20.380Z,77.16
2023-01-29T22:37:48.208Z,73.72
2023-01-29T22:40:17.815Z,70.55
2023-01-29T22:42:45.856Z,72.06
2023-01-29T22:45:13.728Z,73.21
2023-01-29T22:47:41.530Z,78.12
2023-01-29T22:50:10.707Z,70.21
2023-01-29T22:52:42.700Z,68.36
2023-01-29T22:55:12.751Z,75.48
2023-01-29T22:57:42.039Z,71.45
2023-01-29T23:00:12.119Z,70.96
2023-01-29T23:02:39.997Z,76.40
2023-01-29T23:05:08.687Z,79.12
2023-01-29T23:07:36.556Z,68.88
2023-01-29T23:10:05.466Z,73.56
2023-01-29T23:12:33.713Z,73.62
2023-01-29T23:15:02.925Z,71.56
2023-01-29T23:17:30.744Z,70.51
2023-01-29T23:19:58.547Z,64.69
2023-01-29T23:22:26.385Z,67.87
2023-01-29T23:24:54.172Z,65.00
2023-01-29T23:27:21.300Z,65.01
2023-01-29T23:29:49.670Z,71.73
2023-01-29T23:32:20.706Z,68.45
2023-01-29T23:34:48.733Z,65.30
2023-01-29T23:37:16.604Z,73.06
2023-01-29T23:39:44.516Z,65.29
2023-01-29T23:42:12.904Z,65.58
2023-01-29T23:44:41.161Z,71.74
2023-01-29T23:47:09.253Z,80.00
2023-01-29T23:49:38.569Z,81.04
2023-01-29T23:52:06.678Z,70.20
2023-01-29T23:54:34.597Z,66.53
2023-01-29T23:57:02.529Z,65.23
2023-01-29T23:59:30.386Z,73.36
